Time;durP1;ratioP1;P1;durP2;ratioP2;P2;SDS_P1;SDS_P2;PMS_P1;PMS_P2;Temp;Humidity;BMP_temperature;BMP_pressure;BME280_temperature;BME280_humidity;BME280_pressure;Samples;Min_cycle;Max_cycle;Signal;HPM_P1;HPM_P2
2023/04/10 00:00:31;;;;;;;6.55;5.78;;;;;;;8.56;91.91;102114.59;5090885;28;20044;-36
2023/04/10 00:03:02;;;;;;;7.25;5.80;;;;;;;8.57;91.62;102115.44;5090045;28;20054;-36
2023/04/10 00:05:28;;;;;;;6.20;5.60;;;;;;;8.50;92.43;102110.78;5090587;28;20020;-36
2023/04/10 00:07:53;;;;;;;6.65;5.93;;;;;;;8.48;92.48;102095.81;5089769;28;20467;-36
2023/04/10 00:10:18;;;;;;;5.70;5.20;;;;;;;8.50;92.82;102094.63;5090566;28;20064;-36
2023/04/10 00:12:44;;;;;;;5.93;5.33;;;;;;;8.39;91.42;102069.97;5081450;28;20647;-36
2023/04/10 00:15:09;;;;;;;7.88;6.28;;;;;;;8.43;93.20;102080.19;5077202;28;20032;-36
2023/04/10 00:17:35;;;;;;;6.53;5.63;;;;;;;8.42;92.41;102078.53;5076336;28;20012;-36
2023/04/10 00:20:01;;;;;;;6.27;5.67;;;;;;;8.40;92.06;102067.09;5076843;28;20020;-36
2023/04/10 00:22:26;;;;;;;5.68;5.18;;;;;;;8.36;91.93;102070.31;5076536;28;20059;-36
2023/04/10 00:24:51;;;;;;;6.10;5.50;;;;;;;8.25;93.48;102042.00;5076709;28;20497;-36
2023/04/10 00:27:17;;;;;;;6.63;5.03;;;;;;;8.40;93.60;102072.50;5076126;28;20103;-36
2023/04/10 00:29:42;;;;;;;5.80;5.23;;;;;;;8.39;92.82;102064.56;5076213;28;20020;-36
2023/04/10 00:32:07;;;;;;;7.43;5.33;;;;;;;8.40;92.15;102061.72;5076634;28;20023;-36
2023/04/10 00:34:33;;;;;;;6.33;5.73;;;;;;;8.30;93.26;102039.56;5076586;28;20021;-36
2023/04/10 00:36:58;;;;;;;5.90;5.30;;;;;;;8.36;92.57;102054.16;5076633;28;20024;-36
2023/04/10 00:39:23;;;;;;;7.37;5.10;;;;;;;8.31;92.61;102043.94;5075988;28;20028;-36
2023/04/10 00:41:49;;;;;;;6.33;5.70;;;;;;;8.35;92.37;102042.53;5076116;28;20040;-36
2023/04/10 00:44:14;;;;;;;6.85;5.20;;;;;;;8.38;93.19;102046.72;5075818;28;20399;-36
2023/04/10 00:46:40;;;;;;;6.20;4.97;;;;;;;8.36;92.78;102048.75;5075890;28;20043;-36
2023/04/10 00:49:06;;;;;;;5.68;5.07;;;;;;;8.34;92.36;102054.31;5075742;28;20061;-36
2023/04/10 00:51:31;;;;;;;5.40;4.90;;;;;;;8.28;92.76;102030.81;5076567;28;20074;-36
2023/04/10 00:54:00;;;;;;;7.13;5.53;;;;;;;8.31;92.60;102038.53;5075452;28;20112;-36
2023/04/10 00:56:25;;;;;;;6.10;5.45;;;;;;;8.31;91.75;102043.94;5076176;28;20282;-36
2023/04/10 00:58:51;;;;;;;6.18;5.57;;;;;;;8.32;92.05;102042.06;5075544;28;20488;-36
2023/04/10 01:01:16;;;;;;;5.53;5.03;;;;;;;8.32;92.42;102042.91;5075746;28;20530;-36
2023/04/10 01:03:43;;;;;;;5.65;5.15;;;;;;;8.30;91.70;102041.44;5075427;28;20017;-36
2023/04/10 01:06:25;;;;;;;5.55;4.90;;;;;;;8.34;91.02;102040.84;5075358;28;20021;-36
2023/04/10 01:09:05;;;;;;;6.32;5.43;;;;;;;8.31;92.12;102041.22;5075909;28;20380;-36
2023/04/10 01:11:50;;;;;;;5.88;5.28;;;;;;;8.25;90.62;102023.97;5076119;28;20445;-36
2023/04/10 01:14:22;;;;;;;5.43;4.88;;;;;;;8.35;90.62;102042.53;5075556;28;20020;-36
2023/04/10 01:17:11;;;;;;;6.00;5.38;;;;;;;8.33;91.41;102038.34;5076029;28;20017;-36
2023/04/10 01:19:59;;;;;;;5.57;5.07;;;;;;;8.34;91.40;102034.63;5075748;28;20031;-36
2023/04/10 01:22:30;;;;;;;5.55;5.05;;;;;;;8.27;91.29;102030.00;5075152;28;20024;-36
2023/04/10 01:25:13;;;;;;;5.55;5.03;;;;;;;8.29;91.88;102027.09;5074893;28;20040;-36
2023/04/10 01:28:06;;;;;;;5.90;5.30;;;;;;;8.34;91.37;102035.44;5075317;28;20090;-36
2023/04/10 01:30:35;;;;;;;6.47;5.00;;;;;;;8.21;92.05;102011.88;5075122;28;20025;-36
2023/04/10 01:33:01;;;;;;;6.25;5.65;;;;;;;8.31;91.11;102018.84;5074848;28;20456;-36
2023/04/10 01:35:29;;;;;;;5.38;4.85;;;;;;;8.27;92.09;102023.75;5075359;28;20074;-36
2023/04/10 01:37:56;;;;;;;6.70;5.63;;;;;;;8.23;91.60;102009.00;5074720;28;20035;-36
2023/04/10 01:40:23;;;;;;;6.38;5.28;;;;;;;8.24;91.63;102018.72;5074908;28;20017;-36
2023/04/10 01:42:55;;;;;;;5.78;5.10;;;;;;;8.22;92.30;102023.50;5074612;28;20025;-36
2023/04/10 01:45:26;;;;;;;5.30;4.80;;;;;;;8.15;91.86;102009.94;5074612;28;20127;-36
2023/04/10 01:47:52;;;;;;;5.72;5.22;;;;;;;8.18;92.72;102008.72;5074260;28;20461;-36
2023/04/10 01:50:20;;;;;;;5.95;5.35;;;;;;;8.20;92.16;102004.81;5074560;28;20030;-35
2023/04/10 01:52:46;;;;;;;5.57;4.97;;;;;;;8.20;92.44;101995.91;5074127;28;20050;-36
2023/04/10 01:55:13;;;;;;;6.13;5.53;;;;;;;8.14;92.37;102002.03;5074953;28;20017;-36
2023/04/10 01:57:38;;;;;;;5.63;5.05;;;;;;;8.12;92.74;101993.31;5074391;28;20035;-36
2023/04/10 02:00:04;;;;;;;5.67;5.17;;;;;;;8.09;91.99;102001.75;5074884;28;20037;-36
2023/04/10 02:02:33;;;;;;;5.40;4.90;;;;;;;8.07;92.23;101996.56;5074275;28;20527;-36
2023/04/10 02:04:59;;;;;;;5.47;4.88;;;;;;;8.09;92.43;101983.72;5075106;28;20025;-36
2023/04/10 02:07:34;;;;;;;5.50;5.00;;;;;;;8.05;93.68;101987.81;5075019;28;20024;-36
2023/04/10 02:10:08;;;;;;;6.50;5.18;;;;;;;8.01;92.54;101983.84;5074453;28;20025;-36
2023/04/10 02:12:40;;;;;;;5.78;5.18;;;;;;;7.96;93.51;101973.63;5074964;28;20029;-36
2023/04/10 02:15:08;;;;;;;6.43;5.72;;;;;;;7.98;93.14;101971.56;5074177;28;20111;-36
2023/04/10 02:17:35;;;;;;;5.03;4.53;;;;;;;7.96;93.64;101979.00;5073991;28;20020;-36
2023/04/10 02:20:02;;;;;;;6.15;5.55;;;;;;;7.91;94.42;101972.50;5074514;28;20115;-36
2023/04/10 02:22:28;;;;;;;6.45;5.60;;;;;;;7.81;93.79;101958.47;5074484;28;20021;-36
2023/04/10 02:24:53;;;;;;;6.57;5.97;;;;;;;7.88;95.05;101971.00;5074248;28;20055;-36
2023/04/10 02:27:28;;;;;;;7.10;5.23;;;;;;;7.87;94.92;101968.50;5073874;28;20097;-36
2023/04/10 02:29:53;;;;;;;5.63;5.13;;;;;;;7.84;94.73;101961.63;5074147;28;20070;-36
2023/04/10 02:32:19;;;;;;;6.45;5.85;;;;;;;7.81;95.49;101975.47;5073815;28;20423;-36
2023/04/10 02:34:44;;;;;;;6.18;5.45;;;;;;;7.78;95.67;101967.75;5073612;28;20024;-36
2023/04/10 02:37:09;;;;;;;5.63;5.13;;;;;;;7.78;95.75;101970.44;5074317;28;20021;-36
2023/04/10 02:39:35;;;;;;;6.30;5.70;;;;;;;7.77;95.38;101963.41;5074053;28;20040;-36
2023/04/10 02:42:01;;;;;;;6.20;5.45;;;;;;;7.74;95.28;101966.44;5073646;28;20023;-36
2023/04/10 02:44:26;;;;;;;6.07;5.50;;;;;;;7.72;94.59;101961.25;5073824;28;20020;-35
2023/04/10 02:46:52;;;;;;;6.20;5.60;;;;;;;7.69;95.67;101967.00;5074016;28;20021;-36
2023/04/10 02:49:17;;;;;;;7.97;5.03;;;;;;;7.68;95.58;101969.88;5073650;28;20017;-36
2023/04/10 02:51:42;;;;;;;5.83;5.30;;;;;;;7.63;95.88;101961.53;5073447;28;20029;-36
2023/04/10 02:54:07;;;;;;;6.67;5.80;;;;;;;7.65;94.26;101963.00;5073872;28;20082;-36
2023/04/10 02:56:33;;;;;;;6.40;5.67;;;;;;;7.70;94.52;101968.66;5073893;28;20495;-36
2023/04/10 02:58:59;;;;;;;7.45;5.68;;;;;;;7.61;95.21;101950.09;5074076;28;20024;-36
2023/04/10 03:01:25;;;;;;;7.10;5.28;;;;;;;7.66;95.24;101962.00;5073710;28;20039;-36
2023/04/10 03:03:50;;;;;;;6.15;5.55;;;;;;;7.60;94.96;101962.72;5073741;28;20023;-36
2023/04/10 03:06:16;;;;;;;6.93;6.20;;;;;;;7.62;96.00;101973.31;5074055;28;20376;-36
2023/04/10 03:08:41;;;;;;;6.15;5.55;;;;;;;7.58;95.92;101963.94;5074294;28;20021;-36
2023/04/10 03:11:08;;;;;;;5.87;5.27;;;;;;;7.57;96.17;101970.34;5073203;28;20032;-35
2023/04/10 03:13:33;;;;;;;5.70;5.15;;;;;;;7.52;95.76;101970.91;5073384;28;20406;-36
2023/04/10 03:15:58;;;;;;;5.87;5.33;;;;;;;7.49;96.16;101979.31;5073992;28;20040;-36
2023/04/10 03:18:24;;;;;;;5.90;5.30;;;;;;;7.51;96.46;101979.13;5073430;28;20024;-36
2023/04/10 03:20:49;;;;;;;6.07;5.47;;;;;;;7.48;96.03;101967.72;5073838;28;20270;-36
2023/04/10 03:23:15;;;;;;;6.18;5.57;;;;;;;7.43;96.65;101970.13;5073030;28;20346;-36
2023/04/10 03:25:40;;;;;;;6.30;5.70;;;;;;;7.41;96.61;101964.09;5073936;28;20027;-36
2023/04/10 03:28:06;;;;;;;8.82;6.40;;;;;;;7.44;96.62;101970.97;5072985;28;20368;-36
2023/04/10 03:30:32;;;;;;;6.20;5.60;;;;;;;7.38;95.88;101969.84;5073862;28;20036;-36
2023/04/10 03:32:57;;;;;;;6.30;5.70;;;;;;;7.38;96.40;101980.59;5073460;28;20021;-36
2023/04/10 03:35:22;;;;;;;6.03;5.43;;;;;;;7.31;97.36;101958.13;5073533;28;20484;-36
2023/04/10 03:37:48;;;;;;;6.07;5.47;;;;;;;7.29;97.26;101954.78;5073189;28;20020;-36
2023/04/10 03:40:13;;;;;;;6.20;5.60;;;;;;;7.31;97.88;101955.44;5073667;28;20033;-36
2023/04/10 03:42:39;;;;;;;6.43;5.83;;;;;;;7.29;98.06;101949.41;5073172;28;20082;-36
2023/04/10 03:45:05;;;;;;;7.57;6.77;;;;;;;7.21;98.19;101946.78;5073742;28;20016;-35
2023/04/10 03:47:31;;;;;;;6.90;6.20;;;;;;;7.16;97.39;101957.25;5074480;28;20262;-35
2023/04/10 03:49:58;;;;;;;6.00;5.40;;;;;;;7.22;97.96;101948.44;5076573;28;20027;-36
2023/04/10 03:52:24;;;;;;;6.88;5.47;;;;;;;7.12;99.26;101940.63;5076744;28;20021;-36
2023/04/10 03:54:49;;;;;;;6.15;5.55;;;;;;;7.09;98.41;101927.56;5077054;28;20035;-36
2023/04/10 03:57:17;;;;;;;6.47;5.70;;;;;;;7.15;97.53;101940.28;5076445;28;20019;-36
2023/04/10 03:59:42;;;;;;;6.95;6.25;;;;;;;7.13;98.35;101939.63;5076462;28;20025;-36
2023/04/10 04:02:08;;;;;;;6.50;5.82;;;;;;;7.11;97.68;101940.81;5076547;28;20024;-36
2023/04/10 04:04:33;;;;;;;7.53;5.75;;;;;;;7.10;97.92;101939.16;5077161;28;20444;-36
2023/04/10 04:06:59;;;;;;;8.27;6.50;;;;;;;7.05;97.47;101930.78;5076368;28;20047;-36
2023/04/10 04:09:24;;;;;;;7.27;6.10;;;;;;;6.99;97.72;101918.09;5077032;28;20352;-36
2023/04/10 04:11:50;;;;;;;8.47;6.20;;;;;;;7.01;97.75;101930.31;5077018;28;20048;-36
2023/04/10 04:14:15;;;;;;;6.38;5.78;;;;;;;6.93;98.20;101928.53;5076413;28;20532;-36
2023/04/10 04:16:41;;;;;;;6.72;6.10;;;;;;;6.86;98.92;101916.81;5076751;28;20032;-36
2023/04/10 04:19:06;;;;;;;6.93;6.23;;;;;;;6.85;98.80;101923.22;5076099;28;20059;-36
2023/04/10 04:21:31;;;;;;;7.07;6.27;;;;;;;6.89;99.20;101921.84;5076340;28;20094;-36
2023/04/10 04:23:57;;;;;;;7.47;6.10;;;;;;;6.82;99.01;101923.56;5076214;28;20024;-36
2023/04/10 04:26:23;;;;;;;6.70;6.10;;;;;;;6.74;99.93;101904.00;5077075;28;20017;-36
2023/04/10 04:28:49;;;;;;;7.07;6.38;;;;;;;6.76;100.00;101912.72;5076112;28;20032;-36
2023/04/10 04:31:15;;;;;;;7.38;6.63;;;;;;;6.75;100.00;101909.19;5076154;28;20452;-36
2023/04/10 04:33:40;;;;;;;7.63;6.82;;;;;;;6.75;100.00;101911.03;5076040;28;20025;-36
2023/04/10 04:36:06;;;;;;;7.68;6.82;;;;;;;6.71;99.96;101913.25;5075818;28;20021;-36
2023/04/10 04:38:31;;;;;;;7.40;6.70;;;;;;;6.71;99.46;101914.09;5075938;28;20107;-36
2023/04/10 04:40:57;;;;;;;7.30;6.57;;;;;;;6.76;99.89;101907.34;5075701;28;20027;-36
2023/04/10 04:43:22;;;;;;;7.77;6.27;;;;;;;6.70;100.00;101900.84;5075694;28;20419;-36
2023/04/10 04:45:47;;;;;;;8.13;7.03;;;;;;;6.71;99.85;101914.09;5076447;28;20040;-36
2023/04/10 04:48:13;;;;;;;7.23;6.53;;;;;;;6.67;99.92;101891.25;5075096;28;20507;-36
2023/04/10 04:50:41;;;;;;;6.40;5.80;;;;;;;6.65;99.88;101890.63;5076119;28;20392;-36
2023/04/10 04:53:08;;;;;;;8.07;6.55;;;;;;;6.77;99.56;101900.94;5075959;28;20095;-36
2023/04/10 04:55:33;;;;;;;7.22;6.40;;;;;;;6.78;99.08;101900.75;5075930;28;20448;-36
2023/04/10 04:57:58;;;;;;;7.57;6.30;;;;;;;6.74;99.89;101896.78;5075241;28;20035;-36
2023/04/10 05:00:24;;;;;;;6.73;6.13;;;;;;;6.71;98.95;101891.75;5075979;28;20041;-36
2023/04/10 05:02:49;;;;;;;6.87;6.17;;;;;;;6.69;98.95;101889.25;5075288;28;20024;-36
2023/04/10 05:05:15;;;;;;;6.70;5.70;;;;;;;6.75;98.67;101901.13;5074248;28;20419;-36
2023/04/10 05:07:40;;;;;;;7.13;6.13;;;;;;;6.74;98.69;101898.63;5075365;28;20024;-36
2023/04/10 05:10:07;;;;;;;6.20;5.60;;;;;;;6.75;98.31;101893.06;5075424;28;20035;-36
2023/04/10 05:12:32;;;;;;;6.38;5.78;;;;;;;6.68;99.02;101871.41;5075835;28;20263;-36
2023/04/10 05:14:58;;;;;;;9.30;5.93;;;;;;;6.77;97.98;101879.44;5075308;28;20023;-36
2023/04/10 05:17:23;;;;;;;6.53;5.93;;;;;;;6.81;97.93;101875.38;5075513;28;20108;-36
2023/04/10 05:19:48;;;;;;;6.63;6.03;;;;;;;6.73;98.02;101862.81;5075019;28;20130;-36
2023/04/10 05:22:14;;;;;;;6.80;6.20;;;;;;;6.82;98.66;101868.97;5074765;28;20380;-36
2023/04/10 05:24:39;;;;;;;6.15;5.57;;;;;;;6.88;98.12;101876.31;5075654;28;20013;-36
2023/04/10 05:27:05;;;;;;;6.70;6.00;;;;;;;6.86;97.87;101873.81;5075671;28;20059;-36
2023/04/10 05:29:30;;;;;;;6.25;5.72;;;;;;;6.87;97.94;101872.78;5074698;28;20017;-36
2023/04/10 05:31:55;;;;;;;6.13;5.53;;;;;;;6.95;98.95;101871.88;5074952;28;20116;-36
2023/04/10 05:34:21;;;;;;;6.53;5.93;;;;;;;6.94;98.33;101878.28;5075534;28;20251;-36
2023/04/10 05:36:46;;;;;;;6.57;5.88;;;;;;;6.92;97.98;101859.63;5074861;28;20017;-36
2023/04/10 05:39:12;;;;;;;6.57;5.87;;;;;;;6.92;97.12;101854.25;5074819;28;20062;-36
2023/04/10 05:41:37;;;;;;;6.60;6.00;;;;;;;7.03;98.50;101874.50;5075010;28;20024;-36
2023/04/10 05:44:03;;;;;;;6.13;5.53;;;;;;;7.06;97.33;101873.28;5074373;28;20020;-36
2023/04/10 05:46:28;;;;;;;6.57;5.80;;;;;;;7.08;97.65;101879.34;5074687;28;20032;-36
2023/04/10 05:48:54;;;;;;;6.60;6.00;;;;;;;7.10;97.56;101872.75;5074603;28;20512;-36
2023/04/10 05:51:19;;;;;;;6.90;6.20;;;;;;;7.12;96.75;101873.38;5075163;28;20085;-36
2023/04/10 05:53:44;;;;;;;7.10;6.40;;;;;;;7.18;96.88;101869.97;5075346;28;20060;-36
2023/04/10 05:56:10;;;;;;;6.20;5.60;;;;;;;7.27;96.44;101875.25;5075075;28;20012;-36
2023/04/10 05:58:35;;;;;;;5.67;5.17;;;;;;;7.26;96.93;101870.91;5074168;28;20059;-36
2023/04/10 06:01:01;;;;;;;7.43;5.72;;;;;;;7.36;96.89;101885.75;5074479;28;20049;-36
2023/04/10 06:03:26;;;;;;;7.28;5.93;;;;;;;7.37;97.12;101879.38;5074089;28;20032;-36
2023/04/10 06:05:52;;;;;;;7.45;6.28;;;;;;;7.41;97.95;101879.81;5073998;28;20082;-36
2023/04/10 06:08:18;;;;;;;5.93;5.32;;;;;;;7.49;96.72;101877.88;5074216;28;20024;-36
2023/04/10 06:10:45;;;;;;;6.45;5.82;;;;;;;7.52;96.36;101873.16;5074298;28;20036;-36
2023/04/10 06:13:10;;;;;;;6.30;5.70;;;;;;;7.56;94.53;101879.81;5074172;28;20020;-36
2023/04/10 06:15:36;;;;;;;7.35;5.93;;;;;;;7.61;97.39;101874.72;5074199;28;20415;-36
2023/04/10 06:18:01;;;;;;;6.20;5.50;;;;;;;7.68;95.86;101878.34;5074066;28;20448;-36
2023/04/10 06:20:27;;;;;;;5.70;4.82;;;;;;;7.76;96.86;101870.19;5074296;28;20044;-36
2023/04/10 06:22:54;;;;;;;7.37;5.80;;;;;;;7.79;96.01;101875.19;5073793;28;20071;-36
2023/04/10 06:25:19;;;;;;;6.18;5.57;;;;;;;7.86;95.85;101865.34;5074524;28;20172;-36
2023/04/10 06:27:45;;;;;;;5.97;5.38;;;;;;;7.85;95.52;101852.03;5073642;28;20115;-36
2023/04/10 06:30:10;;;;;;;5.53;5.03;;;;;;;7.96;94.27;101865.88;5073910;28;20338;-36
2023/04/10 06:32:35;;;;;;;6.47;5.88;;;;;;;7.93;94.65;101844.69;5073856;28;20270;-36
2023/04/10 06:35:01;;;;;;;5.73;5.13;;;;;;;8.04;93.96;101845.22;5074186;28;20032;-36
2023/04/10 06:37:30;;;;;;;5.93;5.32;;;;;;;8.02;92.47;101842.72;5073523;28;20107;-36
2023/04/10 06:40:04;;;;;;;6.57;5.28;;;;;;;8.10;93.01;101850.72;5073811;28;20021;-36
2023/04/10 06:42:29;;;;;;;6.40;5.45;;;;;;;8.16;92.17;101835.63;5073692;28;20020;-36
2023/04/10 06:44:54;;;;;;;5.07;4.57;;;;;;;8.16;92.25;101839.16;5074079;28;20108;-36
2023/04/10 06:47:20;;;;;;;5.33;4.83;;;;;;;8.17;91.65;101827.34;5073676;28;20332;-36
2023/04/10 06:49:45;;;;;;;5.28;4.78;;;;;;;8.21;91.24;101830.50;5073714;28;20064;-36
2023/04/10 06:52:10;;;;;;;5.90;5.30;;;;;;;8.27;90.83;101824.34;5073963;28;20059;-36
2023/04/10 06:54:36;;;;;;;6.17;5.57;;;;;;;8.33;91.32;101810.09;5074232;28;20016;-36
2023/04/10 06:57:02;;;;;;;7.30;5.53;;;;;;;8.32;91.62;101807.59;5073270;28;20048;-36
2023/04/10 06:59:28;;;;;;;5.57;5.07;;;;;;;8.42;90.99;101817.06;5073584;28;20033;-36
2023/04/10 07:01:53;;;;;;;6.00;5.40;;;;;;;8.39;89.82;101798.56;5074088;28;20094;-36
2023/04/10 07:04:18;;;;;;;5.53;5.03;;;;;;;8.52;90.23;101804.09;5073814;28;20463;-36
2023/04/10 07:06:44;;;;;;;5.80;5.20;;;;;;;8.49;89.08;101785.63;5073572;28;20039;-36
2023/04/10 07:09:09;;;;;;;6.35;5.75;;;;;;;8.55;89.01;101785.88;5073434;28;20021;-36
2023/04/10 07:11:35;;;;;;;5.35;4.85;;;;;;;8.68;90.24;101796.75;5073776;28;20029;-36
2023/04/10 07:14:00;;;;;;;5.87;5.27;;;;;;;8.74;88.15;101787.91;5073390;28;20162;-36
2023/04/10 07:16:26;;;;;;;5.70;5.10;;;;;;;8.79;88.18;101782.75;5073105;28;20262;-36
2023/04/10 07:18:51;;;;;;;5.40;4.90;;;;;;;8.86;87.53;101780.91;5073363;28;20024;-36
2023/04/10 07:21:17;;;;;;;5.33;4.83;;;;;;;8.94;87.04;101777.25;5073068;28;20024;-36
2023/04/10 07:23:42;;;;;;;5.73;5.23;;;;;;;8.96;86.44;101765.22;5076835;28;20021;-36
2023/04/10 07:26:07;;;;;;;5.60;5.07;;;;;;;8.95;87.07;101752.75;5077380;28;20031;-36
2023/04/10 07:28:33;;;;;;;6.43;5.33;;;;;;;8.95;86.63;101741.16;5077273;28;20017;-36
2023/04/10 07:30:58;;;;;;;5.43;4.93;;;;;;;9.15;85.91;101757.44;5078128;28;20099;-36
2023/04/10 07:33:23;;;;;;;5.53;5.03;;;;;;;9.21;86.88;101768.25;5077178;28;20480;-36
2023/04/10 07:35:49;;;;;;;5.63;5.03;;;;;;;9.27;85.26;101755.81;5077484;28;20461;-36
2023/04/10 07:38:14;;;;;;;5.50;5.00;;;;;;;9.30;83.01;101750.03;5077103;28;20448;-36
2023/04/10 07:40:40;;;;;;;5.70;5.20;;;;;;;9.37;85.92;101748.22;5077104;28;20032;-36
2023/04/10 07:43:05;;;;;;;6.57;5.80;;;;;;;9.36;84.67;101729.50;5076784;28;20058;-36
2023/04/10 07:45:30;;;;;;;5.93;5.37;;;;;;;9.54;84.60;101736.03;5077290;28;20024;-36
2023/04/10 07:47:58;;;;;;;6.70;5.63;;;;;;;9.51;84.28;101708.59;5076864;28;20031;-36
2023/04/10 07:50:23;;;;;;;5.38;4.88;;;;;;;9.69;83.48;101724.22;5076606;28;20034;-36
2023/04/10 07:52:49;;;;;;;5.75;5.15;;;;;;;9.84;82.52;101727.59;5076831;28;20028;-36
2023/04/10 07:55:14;;;;;;;6.00;5.40;;;;;;;9.88;81.64;101707.22;5077410;28;20048;-37
2023/04/10 07:57:40;;;;;;;5.50;4.95;;;;;;;10.07;82.36;101717.25;5076694;28;20016;-37
2023/04/10 08:00:06;;;;;;;24.57;7.57;;;;;;;10.28;83.41;101713.53;5076467;28;20037;-37
2023/04/10 08:02:31;;;;;;;6.40;5.53;;;;;;;10.47;80.42;101708.34;5076720;28;20024;-34
2023/04/10 08:04:56;;;;;;;6.47;5.27;;;;;;;10.61;78.37;101692.94;5076930;28;20024;-35
2023/04/10 08:07:22;;;;;;;6.83;4.87;;;;;;;10.75;78.16;101697.28;5076926;28;20020;-37
2023/04/10 08:09:47;;;;;;;34.27;7.90;;;;;;;10.86;77.76;101699.31;5076633;28;20017;-37
2023/04/10 08:12:13;;;;;;;5.20;4.30;;;;;;;10.90;76.29;101703.28;5077285;28;20270;-36
2023/04/10 08:14:38;;;;;;;5.50;4.70;;;;;;;10.98;76.50;101694.94;5075474;28;20113;-37
2023/04/10 08:17:04;;;;;;;5.00;4.50;;;;;;;10.92;75.76;101681.41;5076977;28;20062;-37
2023/04/10 08:19:29;;;;;;;5.00;4.53;;;;;;;10.99;74.91;101693.06;5077174;28;20024;-34
2023/04/10 08:21:55;;;;;;;4.97;4.47;;;;;;;11.02;75.95;101690.72;5076189;28;20107;-34
2023/04/10 08:24:21;;;;;;;4.83;4.30;;;;;;;11.02;75.65;101685.31;5077054;28;20028;-35
2023/04/10 08:26:47;;;;;;;4.93;4.15;;;;;;;11.07;75.74;101692.81;5075905;28;20247;-35
2023/04/10 08:29:12;;;;;;;5.38;4.25;;;;;;;11.09;74.21;101691.56;5076203;28;20032;-35
2023/04/10 08:31:38;;;;;;;5.20;4.37;;;;;;;11.15;77.06;101679.03;5076764;28;20405;-35
2023/04/10 08:34:03;;;;;;;4.70;4.22;;;;;;;11.31;77.29;101694.78;5075660;28;20103;-35
2023/04/10 08:36:30;;;;;;;5.67;4.50;;;;;;;11.40;76.91;101686.44;5076103;28;20029;-35
2023/04/10 08:38:55;;;;;;;4.78;4.30;;;;;;;11.39;75.63;101663.94;5076008;28;20032;-35
2023/04/10 08:41:21;;;;;;;4.80;4.40;;;;;;;11.54;74.76;101677.19;5076192;28;20444;-35
2023/04/10 08:43:48;;;;;;;4.90;4.20;;;;;;;11.61;74.07;101661.72;5075925;28;20456;-35
2023/04/10 08:46:14;;;;;;;4.00;3.60;;;;;;;11.61;72.89;101661.72;5076116;28;20259;-35
2023/04/10 08:48:51;;;;;;;5.78;4.55;;;;;;;11.66;74.71;101659.19;5075487;28;20376;-35
2023/04/10 08:51:19;;;;;;;4.80;4.30;;;;;;;11.65;73.81;101659.41;5076039;28;20033;-35
2023/04/10 08:53:49;;;;;;;4.70;4.30;;;;;;;11.65;75.08;101667.53;5075340;28;20030;-35
2023/04/10 08:56:16;;;;;;;4.35;3.95;;;;;;;11.61;74.21;101667.13;5075576;28;20035;-35
2023/04/10 08:58:42;;;;;;;4.88;4.40;;;;;;;11.58;74.81;101663.00;5075628;28;20150;-35
2023/04/10 09:01:10;;;;;;;4.43;4.03;;;;;;;11.67;75.03;101662.75;5076247;28;20048;-35
2023/04/10 09:03:36;;;;;;;5.03;4.50;;;;;;;11.65;75.52;101651.28;5075415;28;20027;-35
2023/04/10 09:06:03;;;;;;;4.68;4.10;;;;;;;11.68;76.22;101650.84;5075200;28;20468;-35
2023/04/10 09:08:29;;;;;;;4.88;4.03;;;;;;;11.78;77.21;101651.19;5075627;28;20027;-35
2023/04/10 09:10:54;;;;;;;5.05;4.55;;;;;;;11.82;75.56;101652.44;5075645;28;20029;-35
2023/04/10 09:13:40;;;;;;;4.40;4.00;;;;;;;11.87;75.26;101646.38;5075531;28;20017;-35
2023/04/10 09:16:06;;;;;;;4.28;3.88;;;;;;;11.91;77.10;101650.28;5075289;28;20026;-35
2023/04/10 09:18:48;;;;;;;5.60;4.07;;;;;;;11.88;75.53;101639.91;5075948;28;20085;-36
2023/04/10 09:21:18;;;;;;;4.72;4.20;;;;;;;11.88;75.99;101638.00;5074972;28;20097;-35
2023/04/10 09:23:45;;;;;;;5.28;3.83;;;;;;;11.79;75.43;101617.63;5075429;28;20028;-35
2023/04/10 09:26:27;;;;;;;6.07;4.85;;;;;;;11.93;75.91;101640.91;5075387;28;20028;-35
2023/04/10 09:29:06;;;;;;;4.25;3.85;;;;;;;11.97;75.58;101631.28;5074903;28;20020;-35
2023/04/10 09:31:37;;;;;;;5.43;4.03;;;;;;;12.01;75.50;101623.53;5074920;28;20074;-35
2023/04/10 09:34:11;;;;;;;5.75;4.55;;;;;;;12.07;74.92;101623.47;5074889;28;20028;-35
2023/04/10 09:36:37;;;;;;;4.40;4.00;;;;;;;12.09;75.89;101606.97;5075202;28;20051;-35
2023/04/10 09:39:05;;;;;;;4.63;3.92;;;;;;;12.16;75.76;101609.66;5074745;28;20445;-36
2023/04/10 09:41:31;;;;;;;4.50;4.10;;;;;;;12.24;76.27;101603.91;5074658;28;20479;-35
2023/04/10 09:44:07;;;;;;;4.60;4.20;;;;;;;12.26;74.47;101590.97;5074576;28;20046;-35
2023/04/10 09:46:33;;;;;;;4.82;4.32;;;;;;;12.21;74.36;101580.81;5074458;28;20368;-35
2023/04/10 09:49:03;;;;;;;5.93;4.22;;;;;;;12.30;75.71;101584.06;5074567;28;20033;-36
2023/04/10 09:51:35;;;;;;;4.30;3.90;;;;;;;12.28;74.15;101567.16;5074823;28;20530;-35
2023/04/10 09:54:02;;;;;;;4.53;3.72;;;;;;;12.36;75.62;101572.31;5074754;28;20047;-35
2023/04/10 09:56:28;;;;;;;4.25;3.85;;;;;;;12.38;77.41;101576.44;5074819;28;20098;-35
2023/04/10 09:58:58;;;;;;;5.63;3.80;;;;;;;12.35;74.97;101567.94;5074127;28;20107;-35
2023/04/10 10:01:28;;;;;;;4.90;4.00;;;;;;;12.41;75.26;101567.03;5074735;28;20354;-36
2023/04/10 10:03:55;;;;;;;4.82;4.28;;;;;;;12.51;74.93;101574.66;5074631;28;20350;-36
2023/04/10 10:06:24;;;;;;;4.78;4.28;;;;;;;12.63;76.73;101561.97;5074810;28;20030;-36
2023/04/10 10:08:50;;;;;;;4.55;4.07;;;;;;;12.71;76.50;101558.13;5074208;28;20021;-36
2023/04/10 10:11:23;;;;;;;4.03;3.65;;;;;;;12.72;74.84;101549.75;5074806;28;20069;-36
2023/04/10 10:13:55;;;;;;;4.75;4.00;;;;;;;12.84;73.25;101563.41;5074570;28;20108;-36
2023/04/10 10:16:31;;;;;;;4.90;3.72;;;;;;;12.94;72.94;101560.16;5074874;28;20024;-36
2023/04/10 10:18:56;;;;;;;5.05;3.80;;;;;;;13.06;73.61;101548.25;5074331;28;20107;-36
2023/04/10 10:21:23;;;;;;;4.57;4.00;;;;;;;13.16;73.90;101531.41;5074282;28;20178;-36
2023/04/10 10:23:53;;;;;;;4.10;3.70;;;;;;;13.24;73.94;101527.59;5073976;28;20056;-36
2023/04/10 10:26:22;;;;;;;3.83;3.53;;;;;;;13.39;71.35;101522.53;5073670;28;20032;-36
2023/04/10 10:28:51;;;;;;;4.30;3.90;;;;;;;13.60;71.24;101519.25;5073838;28;20460;-36
2023/04/10 10:31:18;;;;;;;3.65;3.35;;;;;;;13.80;69.77;101518.09;5074438;28;20108;-36
2023/04/10 10:33:45;;;;;;;4.40;3.53;;;;;;;13.99;70.98;101521.50;5073854;28;20020;-36
2023/04/10 10:36:12;;;;;;;4.25;3.78;;;;;;;14.08;70.78;101510.03;5074647;28;20054;-36
2023/04/10 10:38:43;;;;;;;4.50;3.63;;;;;;;14.23;68.73;101509.53;5073523;28;20024;-36
2023/04/10 10:41:37;;;;;;;3.70;3.30;;;;;;;14.34;67.54;101514.13;5073729;28;20051;-36
2023/04/10 10:44:07;;;;;;;4.18;3.60;;;;;;;14.36;68.04;101505.75;5067668;28;20043;-36
2023/04/10 10:46:39;;;;;;;4.30;3.30;;;;;;;14.39;68.56;101495.19;5073695;28;20028;-36
2023/04/10 10:49:05;;;;;;;3.10;2.80;;;;;;;14.45;69.29;101498.88;5073645;28;20408;-36
2023/04/10 10:51:45;;;;;;;2.55;2.28;;;;;;;14.46;65.84;101477.94;5073704;28;20032;-36
2023/04/10 10:54:30;;;;;;;2.75;2.55;;;;;;;14.47;64.65;101465.97;5073567;28;20021;-36
2023/04/10 10:56:55;;;;;;;2.83;2.55;;;;;;;14.62;65.74;101472.56;5074248;28;20099;-36
2023/04/10 10:59:42;;;;;;;2.67;2.13;;;;;;;14.81;66.69;101469.66;5074109;28;20103;-36
2023/04/10 11:02:18;;;;;;;6.05;2.58;;;;;;;14.96;64.82;101461.75;5074690;28;20076;-36
2023/04/10 11:04:45;;;;;;;5.65;2.35;;;;;;;15.02;62.24;101460.75;5074449;28;20043;-36
2023/04/10 11:07:10;;;;;;;3.38;2.05;;;;;;;15.12;63.91;101458.22;5074096;28;20027;-36
2023/04/10 11:09:47;;;;;;;2.83;2.15;;;;;;;15.22;63.75;101462.19;5073518;28;20021;-36
2023/04/10 11:12:14;;;;;;;3.65;2.10;;;;;;;15.25;62.28;101454.34;5074014;28;20449;-36
2023/04/10 11:14:42;;;;;;;2.20;1.95;;;;;;;15.33;63.61;101455.84;5074250;28;20020;-36
2023/04/10 11:17:07;;;;;;;2.30;2.10;;;;;;;15.34;61.15;101443.88;5073066;28;20029;-36
2023/04/10 11:19:58;;;;;;;2.65;2.20;;;;;;;15.57;61.91;101431.97;5073125;28;20032;-36
2023/04/10 11:22:24;;;;;;;2.30;2.10;;;;;;;15.64;63.40;101414.38;5073048;28;20051;-36
2023/04/10 11:25:01;;;;;;;3.05;2.40;;;;;;;15.83;60.41;101406.75;5073305;28;20020;-36
2023/04/10 11:27:45;;;;;;;3.42;2.10;;;;;;;16.00;61.01;101411.31;5073074;28;20021;-36
2023/04/10 11:30:27;;;;;;;3.67;2.22;;;;;;;16.00;59.29;101409.41;5074139;28;20021;-36
2023/04/10 11:32:54;;;;;;;2.53;2.10;;;;;;;16.01;57.98;101411.06;5073267;28;20020;-36